sensor_id;sensor_type;location;lat;lon;timestamp;pressure;altitude;pressure_sealevel;temperature;humidity
44131;BME280;29792;48.726;9.248;2023-04-21T00:00:22;96527.41;;;5.98;100.00
44131;BME280;29792;48.726;9.248;2023-04-21T00:02:48;96524.88;;;5.98;100.00
44131;BME280;29792;48.726;9.248;2023-04-21T00:05:13;96524.97;;;5.96;100.00
44131;BME280;29792;48.726;9.248;2023-04-21T00:07:39;96522.34;;;5.98;100.00
44131;BME280;29792;48.726;9.248;2023-04-21T00:10:07;96533.31;;;5.98;100.00
44131;BME280;29792;48.726;9.248;2023-04-21T00:12:32;96524.78;;;5.99;100.00
44131;BME280;29792;48.726;9.248;2023-04-21T00:14:58;96530.66;;;6.00;100.00
44131;BME280;29792;48.726;9.248;2023-04-21T00:17:23;96523.25;;;5.97;100.00
44131;BME280;29792;48.726;9.248;2023-04-21T00:19:48;96529.03;;;5.99;100.00
44131;BME280;29792;48.726;9.248;2023-04-21T00:22:14;96523.25;;;5.97;100.00
44131;BME280;29792;48.726;9.248;2023-04-21T00:24:39;96522.34;;;5.98;100.00
44131;BME280;29792;48.726;9.248;2023-04-21T00:27:05;96518.06;;;5.98;100.00
44131;BME280;29792;48.726;9.248;2023-04-21T00:29:30;96521.41;;;5.99;100.00
44131;BME280;29792;48.726;9.248;2023-04-21T00:31:56;96519.78;;;5.98;100.00
44131;BME280;29792;48.726;9.248;2023-04-21T00:34:21;96519.78;;;5.98;100.00
44131;BME280;29792;48.726;9.248;2023-04-21T00:36:46;96517.34;;;5.96;100.00
44131;BME280;29792;48.726;9.248;2023-04-21T00:39:11;96513.91;;;5.97;100.00
44131;BME280;29792;48.726;9.248;2023-04-21T00:41:37;96503.81;;;5.96;100.00
44131;BME280;29792;48.726;9.248;2023-04-21T00:44:05;96509.00;;;5.94;100.00
44131;BME280;29792;48.726;9.248;2023-04-21T00:46:32;96501.38;;;5.94;100.00
44131;BME280;29792;48.726;9.248;2023-04-21T00:48:58;96507.38;;;5.93;100.00
44131;BME280;29792;48.726;9.248;2023-04-21T00:51:23;96504.84;;;5.93;100.00
44131;BME280;29792;48.726;9.248;2023-04-21T00:53:50;96501.47;;;5.93;100.00
44131;BME280;29792;48.726;9.248;2023-04-21T00:56:16;96496.53;;;5.91;100.00
44131;BME280;29792;48.726;9.248;2023-04-21T00:58:44;96500.69;;;5.92;100.00
44131;BME280;29792;48.726;9.248;2023-04-21T01:01:09;96500.00;;;5.90;100.00
44131;BME280;29792;48.726;9.248;2023-04-21T01:03:35;96499.28;;;5.88;100.00
44131;BME280;29792;48.726;9.248;2023-04-21T01:06:00;96493.44;;;5.86;100.00
44131;BME280;29792;48.726;9.248;2023-04-21T01:08:26;96487.78;;;5.83;100.00
44131;BME280;29792;48.726;9.248;2023-04-21T01:10:51;96495.50;;;5.81;100.00
44131;BME280;29792;48.726;9.248;2023-04-21T01:13:18;96488.91;;;5.79;100.00
44131;BME280;29792;48.726;9.248;2023-04-21T01:15:45;96484.06;;;5.75;100.00
44131;BME280;29792;48.726;9.248;2023-04-21T01:18:10;96488.31;;;5.75;100.00
44131;BME280;29792;48.726;9.248;2023-04-21T01:20:35;96481.81;;;5.71;100.00
44131;BME280;29792;48.726;9.248;2023-04-21T01:23:01;96481.22;;;5.67;100.00
44131;BME280;29792;48.726;9.248;2023-04-21T01:25:26;96472.19;;;5.63;100.00
44131;BME280;29792;48.726;9.248;2023-04-21T01:27:52;96469.75;;;5.62;100.00
44131;BME280;29792;48.726;9.248;2023-04-21T01:30:17;96470.78;;;5.59;100.00
44131;BME280;29792;48.726;9.248;2023-04-21T01:32:43;96480.34;;;5.56;100.00
44131;BME280;29792;48.726;9.248;2023-04-21T01:35:08;96487.13;;;5.55;100.00
44131;BME280;29792;48.726;9.248;2023-04-21T01:37:33;96489.06;;;5.52;100.00
44131;BME280;29792;48.726;9.248;2023-04-21T01:40:01;96482.50;;;5.49;100.00
44131;BME280;29792;48.726;9.248;2023-04-21T01:42:30;96483.50;;;5.47;100.00
44131;BME280;29792;48.726;9.248;2023-04-21T01:44:55;96481.28;;;5.42;100.00
44131;BME280;29792;48.726;9.248;2023-04-21T01:47:22;96493.38;;;5.38;100.00
44131;BME280;29792;48.726;9.248;2023-04-21T01:49:47;96497.84;;;5.35;100.00
44131;BME280;29792;48.726;9.248;2023-04-21T01:52:13;96504.75;;;5.33;100.00
44131;BME280;29792;48.726;9.248;2023-04-21T01:54:38;96503.31;;;5.29;100.00
44131;BME280;29792;48.726;9.248;2023-04-21T01:57:03;96507.81;;;5.25;100.00
44131;BME280;29792;48.726;9.248;2023-04-21T01:59:29;96500.50;;;5.21;100.00
44131;BME280;29792;48.726;9.248;2023-04-21T02:01:54;96492.28;;;5.17;100.00
44131;BME280;29792;48.726;9.248;2023-04-21T02:04:19;96492.47;;;5.14;100.00
44131;BME280;29792;48.726;9.248;2023-04-21T02:06:44;96501.00;;;5.13;100.00
44131;BME280;29792;48.726;9.248;2023-04-21T02:09:10;96491.06;;;5.10;100.00
44131;BME280;29792;48.726;9.248;2023-04-21T02:11:35;96492.88;;;5.08;100.00
44131;BME280;29792;48.726;9.248;2023-04-21T02:14:01;96487.09;;;5.06;100.00
44131;BME280;29792;48.726;9.248;2023-04-21T02:16:26;96491.34;;;5.06;100.00
44131;BME280;29792;48.726;9.248;2023-04-21T02:18:55;96488.09;;;5.04;100.00
44131;BME280;29792;48.726;9.248;2023-04-21T02:21:21;96489.97;;;5.02;100.00
44131;BME280;29792;48.726;9.248;2023-04-21T02:23:46;96484.16;;;4.99;100.00
44131;BME280;29792;48.726;9.248;2023-04-21T02:26:11;96485.06;;;4.98;100.00
44131;BME280;29792;48.726;9.248;2023-04-21T02:28:37;96480.09;;;4.97;100.00
44131;BME280;29792;48.726;9.248;2023-04-21T02:31:02;96478.59;;;4.94;100.00
44131;BME280;29792;48.726;9.248;2023-04-21T02:33:28;96484.66;;;4.92;100.00
44131;BME280;29792;48.726;9.248;2023-04-21T02:35:53;96486.59;;;4.88;100.00
44131;BME280;29792;48.726;9.248;2023-04-21T02:38:19;96494.41;;;4.85;100.00
44131;BME280;29792;48.726;9.248;2023-04-21T02:40:44;96498.06;;;4.81;100.00
44131;BME280;29792;48.726;9.248;2023-04-21T02:43:09;96495.59;;;4.80;100.00
44131;BME280;29792;48.726;9.248;2023-04-21T02:45:35;96500.00;;;4.78;100.00
44131;BME280;29792;48.726;9.248;2023-04-21T02:48:01;96498.38;;;4.77;100.00
44131;BME280;29792;48.726;9.248;2023-04-21T02:50:26;96500.09;;;4.76;100.00
44131;BME280;29792;48.726;9.248;2023-04-21T02:52:51;96506.97;;;4.74;100.00
44131;BME280;29792;48.726;9.248;2023-04-21T02:55:16;96495.09;;;4.75;100.00
44131;BME280;29792;48.726;9.248;2023-04-21T02:57:42;96490.75;;;4.77;100.00
44131;BME280;29792;48.726;9.248;2023-04-21T03:00:07;96477.97;;;4.78;100.00
44131;BME280;29792;48.726;9.248;2023-04-21T03:02:35;96484.66;;;4.79;100.00
44131;BME280;29792;48.726;9.248;2023-04-21T03:05:01;96484.56;;;4.81;100.00
44131;BME280;29792;48.726;9.248;2023-04-21T03:07:26;96488.81;;;4.80;100.00
44131;BME280;29792;48.726;9.248;2023-04-21T03:09:51;96478.75;;;4.79;100.00
44131;BME280;29792;48.726;9.248;2023-04-21T03:12:16;96483.06;;;4.78;100.00
44131;BME280;29792;48.726;9.248;2023-04-21T03:14:42;96474.63;;;4.78;100.00
44131;BME280;29792;48.726;9.248;2023-04-21T03:17:07;96471.28;;;4.77;100.00
44131;BME280;29792;48.726;9.248;2023-04-21T03:19:32;96467.91;;;4.77;100.00
44131;BME280;29792;48.726;9.248;2023-04-21T03:21:58;96470.47;;;4.77;100.00
44131;BME280;29792;48.726;9.248;2023-04-21T03:24:23;96468.00;;;4.75;100.00
44131;BME280;29792;48.726;9.248;2023-04-21T03:26:48;96474.81;;;4.75;100.00
44131;BME280;29792;48.726;9.248;2023-04-21T03:29:13;96476.44;;;4.76;100.00
44131;BME280;29792;48.726;9.248;2023-04-21T03:31:39;96463.22;;;4.71;100.00
44131;BME280;29792;48.726;9.248;2023-04-21T03:34:04;96474.41;;;4.68;100.00
44131;BME280;29792;48.726;9.248;2023-04-21T03:36:29;96476.22;;;4.66;100.00
44131;BME280;29792;48.726;9.248;2023-04-21T03:38:55;96479.66;;;4.65;100.00
44131;BME280;29792;48.726;9.248;2023-04-21T03:41:20;96470.44;;;4.64;100.00
44131;BME280;29792;48.726;9.248;2023-04-21T03:43:49;96472.16;;;4.64;100.00
44131;BME280;29792;48.726;9.248;2023-04-21T03:46:18;96477.13;;;4.65;100.00
44131;BME280;29792;48.726;9.248;2023-04-21T03:48:44;96472.69;;;4.69;100.00
44131;BME280;29792;48.726;9.248;2023-04-21T03:51:10;96470.84;;;4.71;100.00
44131;BME280;29792;48.726;9.248;2023-04-21T03:53:35;96478.25;;;4.74;100.00
44131;BME280;29792;48.726;9.248;2023-04-21T03:56:01;96484.88;;;4.76;100.00
44131;BME280;29792;48.726;9.248;2023-04-21T03:58:26;96480.50;;;4.78;100.00
44131;BME280;29792;48.726;9.248;2023-04-21T04:00:51;96481.19;;;4.80;100.00
44131;BME280;29792;48.726;9.248;2023-04-21T04:03:16;96486.09;;;4.83;100.00
44131;BME280;29792;48.726;9.248;2023-04-21T04:05:41;96488.53;;;4.85;100.00
44131;BME280;29792;48.726;9.248;2023-04-21T04:08:07;96481.72;;;4.85;100.00
44131;BME280;29792;48.726;9.248;2023-04-21T04:10:32;96484.13;;;4.87;100.00
44131;BME280;29792;48.726;9.248;2023-04-21T04:12:57;96494.19;;;4.88;100.00
44131;BME280;29792;48.726;9.248;2023-04-21T04:15:22;96488.31;;;4.88;100.00
44131;BME280;29792;48.726;9.248;2023-04-21T04:17:48;96482.31;;;4.89;100.00
44131;BME280;29792;48.726;9.248;2023-04-21T04:20:13;96479.78;;;4.89;100.00
44131;BME280;29792;48.726;9.248;2023-04-21T04:22:39;96484.84;;;4.89;100.00
44131;BME280;29792;48.726;9.248;2023-04-21T04:25:04;96491.75;;;4.87;100.00
44131;BME280;29792;48.726;9.248;2023-04-21T04:27:30;96487.72;;;4.84;100.00
44131;BME280;29792;48.726;9.248;2023-04-21T04:29:55;96487.72;;;4.84;100.00
44131;BME280;29792;48.726;9.248;2023-04-21T04:32:21;96485.28;;;4.83;100.00
44131;BME280;29792;48.726;9.248;2023-04-21T04:34:46;96484.38;;;4.84;100.00
44131;BME280;29792;48.726;9.248;2023-04-21T04:37:12;96485.09;;;4.86;100.00
44131;BME280;29792;48.726;9.248;2023-04-21T04:39:37;96493.38;;;4.88;100.00
44131;BME280;29792;48.726;9.248;2023-04-21T04:42:06;96493.19;;;4.91;100.00
44131;BME280;29792;48.726;9.248;2023-04-21T04:44:33;96489.75;;;4.92;100.00
44131;BME280;29792;48.726;9.248;2023-04-21T04:46:58;96491.38;;;4.93;100.00
44131;BME280;29792;48.726;9.248;2023-04-21T04:49:23;96492.19;;;4.93;100.00
44131;BME280;29792;48.726;9.248;2023-04-21T04:51:49;96496.22;;;4.96;100.00
44131;BME280;29792;48.726;9.248;2023-04-21T04:54:14;96491.97;;;4.96;100.00
44131;BME280;29792;48.726;9.248;2023-04-21T04:56:39;96487.69;;;4.97;100.00
44131;BME280;29792;48.726;9.248;2023-04-21T04:59:07;96490.97;;;4.99;100.00
44131;BME280;29792;48.726;9.248;2023-04-21T05:01:32;96497.66;;;5.00;100.00
44131;BME280;29792;48.726;9.248;2023-04-21T05:03:57;96496.75;;;5.01;100.00
44131;BME280;29792;48.726;9.248;2023-04-21T05:06:23;96505.06;;;5.03;100.00
44131;BME280;29792;48.726;9.248;2023-04-21T05:08:48;96515.00;;;5.06;100.00
44131;BME280;29792;48.726;9.248;2023-04-21T05:11:13;96517.38;;;5.09;100.00
44131;BME280;29792;48.726;9.248;2023-04-21T05:13:39;96524.88;;;5.11;100.00
44131;BME280;29792;48.726;9.248;2023-04-21T05:16:05;96534.91;;;5.12;100.00
44131;BME280;29792;48.726;9.248;2023-04-21T05:18:30;96526.59;;;5.10;100.00
44131;BME280;29792;48.726;9.248;2023-04-21T05:20:55;96526.59;;;5.10;100.00
44131;BME280;29792;48.726;9.248;2023-04-21T05:23:21;96534.59;;;5.04;100.00
44131;BME280;29792;48.726;9.248;2023-04-21T05:25:46;96525.56;;;5.00;100.00
44131;BME280;29792;48.726;9.248;2023-04-21T05:28:12;96518.16;;;4.97;100.00
44131;BME280;29792;48.726;9.248;2023-04-21T05:30:37;96520.91;;;4.94;100.00
44131;BME280;29792;48.726;9.248;2023-04-21T05:33:02;96526.09;;;4.92;100.00
44131;BME280;29792;48.726;9.248;2023-04-21T05:35:31;96528.63;;;4.92;100.00
44131;BME280;29792;48.726;9.248;2023-04-21T05:37:56;96536.31;;;4.91;100.00
44131;BME280;29792;48.726;9.248;2023-04-21T05:40:22;96538.97;;;4.89;100.00
44131;BME280;29792;48.726;9.248;2023-04-21T05:42:47;96530.63;;;4.87;100.00
44131;BME280;29792;48.726;9.248;2023-04-21T05:45:12;96529.03;;;4.86;100.00
44131;BME280;29792;48.726;9.248;2023-04-21T05:47:38;96533.28;;;4.86;100.00
44131;BME280;29792;48.726;9.248;2023-04-21T05:50:04;96527.09;;;4.90;100.00
44131;BME280;29792;48.726;9.248;2023-04-21T05:52:30;96521.81;;;4.93;100.00
44131;BME280;29792;48.726;9.248;2023-04-21T05:54:56;96523.22;;;4.97;100.00
44131;BME280;29792;48.726;9.248;2023-04-21T05:57:23;96513.47;;;5.04;100.00
44131;BME280;29792;48.726;9.248;2023-04-21T05:59:48;96514.59;;;5.12;100.00
44131;BME280;29792;48.726;9.248;2023-04-21T06:02:13;96508.91;;;5.21;100.00
44131;BME280;29792;48.726;9.248;2023-04-21T06:04:39;96499.69;;;5.33;100.00
44131;BME280;29792;48.726;9.248;2023-04-21T06:07:07;96498.94;;;5.44;100.00
44131;BME280;29792;48.726;9.248;2023-04-21T06:09:35;96496.50;;;5.55;100.00
44131;BME280;29792;48.726;9.248;2023-04-21T06:12:01;96483.16;;;5.64;100.00
44131;BME280;29792;48.726;9.248;2023-04-21T06:14:26;96482.63;;;5.71;100.00
44131;BME280;29792;48.726;9.248;2023-04-21T06:16:51;96466.13;;;5.77;100.00
44131;BME280;29792;48.726;9.248;2023-04-21T06:19:17;96476.41;;;5.88;100.00
44131;BME280;29792;48.726;9.248;2023-04-21T06:21:42;96491.72;;;5.99;100.00
44131;BME280;29792;48.726;9.248;2023-04-21T06:24:07;96512.22;;;6.09;100.00
44131;BME280;29792;48.726;9.248;2023-04-21T06:26:33;96521.72;;;6.18;100.00
44131;BME280;29792;48.726;9.248;2023-04-21T06:28:58;96514.28;;;6.28;100.00
44131;BME280;29792;48.726;9.248;2023-04-21T06:31:23;96509.72;;;6.44;100.00
44131;BME280;29792;48.726;9.248;2023-04-21T06:33:49;96502.72;;;6.59;100.00
44131;BME280;29792;48.726;9.248;2023-04-21T06:36:14;96495.69;;;6.73;100.00
44131;BME280;29792;48.726;9.248;2023-04-21T06:38:39;96499.44;;;6.80;100.00
44131;BME280;29792;48.726;9.248;2023-04-21T06:41:07;96500.72;;;6.86;100.00
44131;BME280;29792;48.726;9.248;2023-04-21T06:43:32;96509.72;;;6.90;100.00
44131;BME280;29792;48.726;9.248;2023-04-21T06:45:58;96500.03;;;6.95;100.00
44131;BME280;29792;48.726;9.248;2023-04-21T06:48:23;96496.22;;;7.01;100.00
44131;BME280;29792;48.726;9.248;2023-04-21T06:50:49;96495.91;;;7.05;100.00
44131;BME280;29792;48.726;9.248;2023-04-21T06:53:14;96498.19;;;7.08;100.00
44131;BME280;29792;48.726;9.248;2023-04-21T06:55:42;96495.31;;;7.13;100.00
44131;BME280;29792;48.726;9.248;2023-04-21T06:58:07;96494.16;;;7.17;100.00
44131;BME280;29792;48.726;9.248;2023-04-21T07:00:32;96493.94;;;7.20;100.00
44131;BME280;29792;48.726;9.248;2023-04-21T07:02:57;96496.00;;;7.26;100.00
44131;BME280;29792;48.726;9.248;2023-04-21T07:05:22;96501.44;;;7.33;100.00
44131;BME280;29792;48.726;9.248;2023-04-21T07:07:48;96500.16;;;7.38;100.00
44131;BME280;29792;48.726;9.248;2023-04-21T07:10:13;96502.28;;;7.44;100.00
44131;BME280;29792;48.726;9.248;2023-04-21T07:12:43;96501.81;;;7.50;100.00
44131;BME280;29792;48.726;9.248;2023-04-21T07:15:09;96495.19;;;7.59;100.00
44131;BME280;29792;48.726;9.248;2023-04-21T07:17:35;96491.47;;;7.74;100.00
44131;BME280;29792;48.726;9.248;2023-04-21T07:20:00;96487.72;;;7.89;100.00
44131;BME280;29792;48.726;9.248;2023-04-21T07:22:26;96479.56;;;8.07;100.00
44131;BME280;29792;48.726;9.248;2023-04-21T07:24:51;96475.94;;;8.20;100.00
44131;BME280;29792;48.726;9.248;2023-04-21T07:27:16;96480.81;;;8.34;100.00
44131;BME280;29792;48.726;9.248;2023-04-21T07:29:43;96470.53;;;8.46;100.00
44131;BME280;29792;48.726;9.248;2023-04-21T07:32:08;96473.03;;;8.57;100.00
44131;BME280;29792;48.726;9.248;2023-04-21T07:34:33;96472.91;;;8.79;100.00
44131;BME280;29792;48.726;9.248;2023-04-21T07:36:59;96484.66;;;9.12;100.00
44131;BME280;29792;48.726;9.248;2023-04-21T07:39:24;96485.66;;;9.61;100.00
44131;BME280;29792;48.726;9.248;2023-04-21T07:41:50;96469.53;;;10.19;100.00
44131;BME280;29792;48.726;9.248;2023-04-21T07:44:15;96470.75;;;10.54;100.00
44131;BME280;29792;48.726;9.248;2023-04-21T07:46:40;96484.88;;;10.67;100.00
44131;BME280;29792;48.726;9.248;2023-04-21T07:49:06;96486.34;;;10.89;100.00
44131;BME280;29792;48.726;9.248;2023-04-21T07:51:31;96476.09;;;11.63;100.00
44131;BME280;29792;48.726;9.248;2023-04-21T07:53:56;96472.94;;;12.06;100.00
44131;BME280;29792;48.726;9.248;2023-04-21T07:56:21;96478.28;;;12.13;100.00
44131;BME280;29792;48.726;9.248;2023-04-21T07:58:47;96477.75;;;12.09;100.00
44131;BME280;29792;48.726;9.248;2023-04-21T08:01:12;96473.06;;;12.05;100.00
44131;BME280;29792;48.726;9.248;2023-04-21T08:03:37;96477.50;;;12.30;100.00
44131;BME280;29792;48.726;9.248;2023-04-21T08:06:03;96489.44;;;13.18;100.00
44131;BME280;29792;48.726;9.248;2023-04-21T08:08:28;96477.78;;;14.16;97.15
44131;BME280;29792;48.726;9.248;2023-04-21T08:10:53;96480.19;;;15.31;93.27
44131;BME280;29792;48.726;9.248;2023-04-21T08:13:19;96474.88;;;16.64;88.06
44131;BME280;29792;48.726;9.248;2023-04-21T08:15:49;96478.56;;;18.32;80.76
44131;BME280;29792;48.726;9.248;2023-04-21T08:18:14;96478.91;;;18.86;70.18
44131;BME280;29792;48.726;9.248;2023-04-21T08:20:41;96480.84;;;19.33;66.30
44131;BME280;29792;48.726;9.248;2023-04-21T08:23:06;96475.22;;;19.29;62.66
44131;BME280;29792;48.726;9.248;2023-04-21T08:25:31;96473.25;;;18.82;60.81
44131;BME280;29792;48.726;9.248;2023-04-21T08:27:56;96473.88;;;18.20;60.67
44131;BME280;29792;48.726;9.248;2023-04-21T08:30:22;96478.31;;;17.17;62.08
44131;BME280;29792;48.726;9.248;2023-04-21T08:32:47;96477.16;;;16.36;63.76
44131;BME280;29792;48.726;9.248;2023-04-21T08:35:12;96479.78;;;15.67;65.68
44131;BME280;29792;48.726;9.248;2023-04-21T08:37:38;96479.25;;;15.24;67.68
44131;BME280;29792;48.726;9.248;2023-04-21T08:40:04;96486.84;;;15.09;71.09
44131;BME280;29792;48.726;9.248;2023-04-21T08:42:30;96485.38;;;15.15;72.79
44131;BME280;29792;48.726;9.248;2023-04-21T08:44:55;96477.66;;;15.15;72.33
44131;BME280;29792;48.726;9.248;2023-04-21T08:47:20;96480.03;;;15.16;72.58
44131;BME280;29792;48.726;9.248;2023-04-21T08:49:49;96478.78;;;15.12;73.12
44131;BME280;29792;48.726;9.248;2023-04-21T08:52:14;96476.06;;;15.06;72.53
44131;BME280;29792;48.726;9.248;2023-04-21T08:54:40;96478.28;;;15.01;73.56
44131;BME280;29792;48.726;9.248;2023-04-21T08:57:06;96471.22;;;14.95;74.46
44131;BME280;29792;48.726;9.248;2023-04-21T08:59:31;96473.34;;;14.91;75.56
44131;BME280;29792;48.726;9.248;2023-04-21T09:04:30;96467.69;;;14.87;76.81
44131;BME280;29792;48.726;9.248;2023-04-21T09:06:55;96473.34;;;14.91;76.97
44131;BME280;29792;48.726;9.248;2023-04-21T09:09:20;96466.56;;;14.90;77.30
44131;BME280;29792;48.726;9.248;2023-04-21T09:11:56;96466.56;;;14.90;76.41
44131;BME280;29792;48.726;9.248;2023-04-21T09:14:30;96455.91;;;14.93;76.26
44131;BME280;29792;48.726;9.248;2023-04-21T09:17:02;96454.28;;;15.00;76.30
44131;BME280;29792;48.726;9.248;2023-04-21T09:19:32;96453.81;;;15.05;75.75
44131;BME280;29792;48.726;9.248;2023-04-21T09:22:02;96459.75;;;15.13;74.61
44131;BME280;29792;48.726;9.248;2023-04-21T09:24:27;96450.38;;;15.20;72.75
44131;BME280;29792;48.726;9.248;2023-04-21T09:26:53;96449.38;;;15.30;72.79
44131;BME280;29792;48.726;9.248;2023-04-21T09:29:25;96441.44;;;15.55;74.31
44131;BME280;29792;48.726;9.248;2023-04-21T09:31:51;96445.38;;;15.74;74.11
44131;BME280;29792;48.726;9.248;2023-04-21T09:34:19;96448.72;;;15.83;72.01
44131;BME280;29792;48.726;9.248;2023-04-21T09:36:45;96445.63;;;15.87;71.21
44131;BME280;29792;48.726;9.248;2023-04-21T09:39:11;96451.97;;;15.77;70.52
44131;BME280;29792;48.726;9.248;2023-04-21T09:41:37;96452.00;;;15.69;71.31
44131;BME280;29792;48.726;9.248;2023-04-21T09:44:02;96455.56;;;15.68;73.19
44131;BME280;29792;48.726;9.248;2023-04-21T09:46:35;96449.75;;;15.65;72.16
44131;BME280;29792;48.726;9.248;2023-04-21T09:49:01;96456.38;;;15.68;74.01
44131;BME280;29792;48.726;9.248;2023-04-21T09:51:26;96447.19;;;15.65;70.14
44131;BME280;29792;48.726;9.248;2023-04-21T09:53:57;96451.84;;;15.70;71.81
44131;BME280;29792;48.726;9.248;2023-04-21T09:56:24;96444.41;;;15.75;72.61
44131;BME280;29792;48.726;9.248;2023-04-21T09:58:56;96449.41;;;15.77;72.51
44131;BME280;29792;48.726;9.248;2023-04-21T10:01:25;96444.06;;;15.78;70.83
44131;BME280;29792;48.726;9.248;2023-04-21T10:03:51;96434.19;;;15.82;72.46
44131;BME280;29792;48.726;9.248;2023-04-21T10:06:17;96435.50;;;15.78;72.87
44131;BME280;29792;48.726;9.248;2023-04-21T10:08:43;96423.38;;;15.86;76.55
44131;BME280;29792;48.726;9.248;2023-04-21T10:11:09;96412.81;;;15.96;75.67
44131;BME280;29792;48.726;9.248;2023-04-21T10:13:35;96411.91;;;16.12;75.71
44131;BME280;29792;48.726;9.248;2023-04-21T10:16:03;96412.28;;;16.23;74.80
44131;BME280;29792;48.726;9.248;2023-04-21T10:18:29;96421.38;;;16.42;75.81
44131;BME280;29792;48.726;9.248;2023-04-21T10:21:03;96415.91;;;16.60;73.53
44131;BME280;29792;48.726;9.248;2023-04-21T10:23:30;96420.97;;;16.76;71.70
44131;BME280;29792;48.726;9.248;2023-04-21T10:26:01;96419.19;;;16.91;72.38
44131;BME280;29792;48.726;9.248;2023-04-21T10:28:46;96411.34;;;17.14;72.90
44131;BME280;29792;48.726;9.248;2023-04-21T10:31:23;96410.34;;;17.44;71.21
44131;BME280;29792;48.726;9.248;2023-04-21T10:39:09;96401.25;;;18.20;69.80
44131;BME280;29792;48.726;9.248;2023-04-21T10:41:42;96401.13;;;18.71;67.57
44131;BME280;29792;48.726;9.248;2023-04-21T10:44:15;96416.72;;;19.05;65.54
44131;BME280;29792;48.726;9.248;2023-04-21T10:46:58;96410.47;;;19.28;64.67
44131;BME280;29792;48.726;9.248;2023-04-21T10:49:27;96413.00;;;19.49;63.86
44131;BME280;29792;48.726;9.248;2023-04-21T10:54:47;96409.25;;;20.32;62.94
44131;BME280;29792;48.726;9.248;2023-04-21T10:57:31;96403.03;;;21.25;64.12
44131;BME280;29792;48.726;9.248;2023-04-21T10:59:56;96396.03;;;22.71;58.82
44131;BME280;29792;48.726;9.248;2023-04-21T11:02:22;96396.34;;;24.09;51.78
44131;BME280;29792;48.726;9.248;2023-04-21T11:04:51;96396.06;;;25.40;49.98
44131;BME280;29792;48.726;9.248;2023-04-21T11:07:19;96396.03;;;26.66;47.55
44131;BME280;29792;48.726;9.248;2023-04-21T11:09:46;96381.94;;;27.92;44.65
44131;BME280;29792;48.726;9.248;2023-04-21T11:12:13;96394.22;;;28.99;41.57
44131;BME280;29792;48.726;9.248;2023-04-21T11:14:41;96389.13;;;29.92;38.48
44131;BME280;29792;48.726;9.248;2023-04-21T11:17:11;96383.44;;;30.66;36.44
44131;BME280;29792;48.726;9.248;2023-04-21T11:19:37;96381.25;;;31.14;34.38
44131;BME280;29792;48.726;9.248;2023-04-21T11:22:04;96374.88;;;31.35;34.37
44131;BME280;29792;48.726;9.248;2023-04-21T11:24:30;96367.53;;;31.12;33.08
44131;BME280;29792;48.726;9.248;2023-04-21T11:26:56;96373.09;;;30.49;35.28
44131;BME280;29792;48.726;9.248;2023-04-21T11:29:22;96365.19;;;30.39;35.94
44131;BME280;29792;48.726;9.248;2023-04-21T11:31:47;96368.88;;;30.58;33.86
44131;BME280;29792;48.726;9.248;2023-04-21T11:34:14;96359.31;;;30.98;33.96
44131;BME280;29792;48.726;9.248;2023-04-21T11:36:44;96365.38;;;31.19;32.66
44131;BME280;29792;48.726;9.248;2023-04-21T11:39:11;96374.41;;;30.92;33.83
44131;BME280;29792;48.726;9.248;2023-04-21T11:41:41;96367.28;;;30.83;34.59
44131;BME280;29792;48.726;9.248;2023-04-21T11:44:08;96368.88;;;30.58;34.44
44131;BME280;29792;48.726;9.248;2023-04-21T11:46:33;96362.44;;;29.83;33.80
44131;BME280;29792;48.726;9.248;2023-04-21T11:49:03;96361.81;;;28.67;35.21
44131;BME280;29792;48.726;9.248;2023-04-21T11:54:01;96338.53;;;26.36;38.07
44131;BME280;29792;48.726;9.248;2023-04-21T11:56:28;96336.81;;;25.56;39.68
44131;BME280;29792;48.726;9.248;2023-04-21T11:58:53;96346.75;;;24.91;43.06
44131;BME280;29792;48.726;9.248;2023-04-21T12:01:20;96340.81;;;24.49;44.53
44131;BME280;29792;48.726;9.248;2023-04-21T12:03:53;96346.06;;;24.07;44.29
44131;BME280;29792;48.726;9.248;2023-04-21T12:06:23;96336.38;;;23.66;46.30
44131;BME280;29792;48.726;9.248;2023-04-21T12:08:56;96342.06;;;23.27;46.29
44131;BME280;29792;48.726;9.248;2023-04-21T12:11:24;96345.03;;;22.94;47.10
44131;BME280;29792;48.726;9.248;2023-04-21T12:13:50;96351.88;;;22.70;47.33
44131;BME280;29792;48.726;9.248;2023-04-21T12:16:17;96342.66;;;22.42;46.28
44131;BME280;29792;48.726;9.248;2023-04-21T12:18:42;96345.59;;;22.28;48.41
44131;BME280;29792;48.726;9.248;2023-04-21T12:21:07;96337.84;;;22.15;48.41
44131;BME280;29792;48.726;9.248;2023-04-21T12:23:33;96327.66;;;22.06;50.17
44131;BME280;29792;48.726;9.248;2023-04-21T12:25:58;96328.53;;;22.00;48.67
44131;BME280;29792;48.726;9.248;2023-04-21T12:28:24;96331.75;;;21.89;48.94
44131;BME280;29792;48.726;9.248;2023-04-21T12:30:50;96318.41;;;21.79;48.76
44131;BME280;29792;48.726;9.248;2023-04-21T12:33:15;96317.06;;;21.70;48.87
44131;BME280;29792;48.726;9.248;2023-04-21T12:35:40;96320.50;;;21.64;48.20
44131;BME280;29792;48.726;9.248;2023-04-21T12:38:06;96315.84;;;21.66;48.31
44131;BME280;29792;48.726;9.248;2023-04-21T12:40:31;96307.97;;;21.79;50.18
44131;BME280;29792;48.726;9.248;2023-04-21T12:42:56;96308.34;;;22.14;49.29
44131;BME280;29792;48.726;9.248;2023-04-21T12:45:21;96300.63;;;22.75;48.83
44131;BME280;29792;48.726;9.248;2023-04-21T12:47:47;96302.38;;;23.66;45.59
44131;BME280;29792;48.726;9.248;2023-04-21T12:50:12;96296.97;;;24.91;45.10
44131;BME280;29792;48.726;9.248;2023-04-21T12:52:38;96294.00;;;26.12;43.15
44131;BME280;29792;48.726;9.248;2023-04-21T12:55:03;96290.25;;;27.14;41.53
44131;BME280;29792;48.726;9.248;2023-04-21T12:57:29;96292.81;;;27.79;39.29
44131;BME280;29792;48.726;9.248;2023-04-21T12:59:56;96294.13;;;28.35;38.40
44131;BME280;29792;48.726;9.248;2023-04-21T13:02:21;96297.19;;;28.64;36.06
44131;BME280;29792;48.726;9.248;2023-04-21T13:04:46;96297.97;;;29.07;36.64
44131;BME280;29792;48.726;9.248;2023-04-21T13:07:11;96294.84;;;29.15;36.49